sensor_id;sensor_type;location;lat;lon;timestamp;pressure;altitude;pressure_sealevel;temperature;humidity
62849;BME280;48941;49.516;8.286;2024-03-17T00:00:06;101226.47;;;8.88;100.00
62849;BME280;48941;49.516;8.286;2024-03-17T00:02:32;101233.50;;;8.89;100.00
62849;BME280;48941;49.516;8.286;2024-03-17T00:04:58;101226.28;;;8.91;100.00
62849;BME280;48941;49.516;8.286;2024-03-17T00:07:26;101220.59;;;8.83;100.00
62849;BME280;48941;49.516;8.286;2024-03-17T00:09:53;101224.16;;;8.82;100.00
62849;BME280;48941;49.516;8.286;2024-03-17T00:12:19;101215.06;;;8.86;100.00
62849;BME280;48941;49.516;8.286;2024-03-17T00:14:46;101213.63;;;8.81;100.00
62849;BME280;48941;49.516;8.286;2024-03-17T00:17:12;101209.34;;;8.78;100.00
62849;BME280;48941;49.516;8.286;2024-03-17T00:19:41;101203.72;;;8.68;100.00
62849;BME280;48941;49.516;8.286;2024-03-17T00:22:06;101207.06;;;8.72;100.00
62849;BME280;48941;49.516;8.286;2024-03-17T00:24:35;101200.81;;;8.73;100.00
62849;BME280;48941;49.516;8.286;2024-03-17T00:27:02;101199.78;;;8.75;100.00
62849;BME280;48941;49.516;8.286;2024-03-17T00:29:28;101206.22;;;8.71;100.00
62849;BME280;48941;49.516;8.286;2024-03-17T00:31:55;101205.63;;;8.66;100.00
62849;BME280;48941;49.516;8.286;2024-03-17T00:34:22;101201.38;;;8.64;100.00
62849;BME280;48941;49.516;8.286;2024-03-17T00:36:48;101203.41;;;8.58;100.00
62849;BME280;48941;49.516;8.286;2024-03-17T00:39:14;101198.78;;;8.62;100.00
62849;BME280;48941;49.516;8.286;2024-03-17T00:41:43;101198.88;;;8.61;100.00
62849;BME280;48941;49.516;8.286;2024-03-17T00:44:09;101194.13;;;8.51;100.00
62849;BME280;48941;49.516;8.286;2024-03-17T00:46:36;101190.44;;;8.54;100.00
62849;BME280;48941;49.516;8.286;2024-03-17T00:49:02;101190.34;;;8.55;100.00
62849;BME280;48941;49.516;8.286;2024-03-17T00:51:31;101180.47;;;8.57;100.00
62849;BME280;48941;49.516;8.286;2024-03-17T00:53:57;101178.69;;;8.58;100.00
62849;BME280;48941;49.516;8.286;2024-03-17T00:56:24;101186.56;;;8.60;100.00
62849;BME280;48941;49.516;8.286;2024-03-17T00:58:51;101178.59;;;8.60;100.00
62849;BME280;48941;49.516;8.286;2024-03-17T01:01:18;101183.13;;;8.57;100.00
62849;BME280;48941;49.516;8.286;2024-03-17T01:03:44;101188.53;;;8.56;100.00
62849;BME280;48941;49.516;8.286;2024-03-17T01:06:11;101185.03;;;8.55;100.00
62849;BME280;48941;49.516;8.286;2024-03-17T01:08:37;101179.13;;;8.50;100.00
62849;BME280;48941;49.516;8.286;2024-03-17T01:11:04;101174.84;;;8.48;100.00
62849;BME280;48941;49.516;8.286;2024-03-17T01:13:34;101170.41;;;8.48;100.00
62849;BME280;48941;49.516;8.286;2024-03-17T01:16:03;101169.06;;;8.41;100.00
62849;BME280;48941;49.516;8.286;2024-03-17T01:18:29;101167.59;;;8.35;100.00
62849;BME280;48941;49.516;8.286;2024-03-17T01:20:55;101166.63;;;8.36;100.00
62849;BME280;48941;49.516;8.286;2024-03-17T01:23:22;101155.25;;;8.34;100.00
62849;BME280;48941;49.516;8.286;2024-03-17T01:25:48;101162.44;;;8.32;100.00
62849;BME280;48941;49.516;8.286;2024-03-17T01:28:15;101151.81;;;8.32;100.00
62849;BME280;48941;49.516;8.286;2024-03-17T01:30:41;101151.06;;;8.30;100.00
62849;BME280;48941;49.516;8.286;2024-03-17T01:33:09;101147.56;;;8.30;100.00
62849;BME280;48941;49.516;8.286;2024-03-17T01:35:36;101146.88;;;8.26;100.00
62849;BME280;48941;49.516;8.286;2024-03-17T01:38:03;101144.41;;;8.23;100.00
62849;BME280;48941;49.516;8.286;2024-03-17T01:40:29;101145.34;;;8.22;100.00
62849;BME280;48941;49.516;8.286;2024-03-17T01:42:56;101140.31;;;8.17;100.00
62849;BME280;48941;49.516;8.286;2024-03-17T01:45:27;101138.03;;;8.11;100.00
62849;BME280;48941;49.516;8.286;2024-03-17T01:47:55;101141.88;;;8.06;100.00
62849;BME280;48941;49.516;8.286;2024-03-17T01:50:25;101141.03;;;8.05;100.00
62849;BME280;48941;49.516;8.286;2024-03-17T01:52:56;101134.78;;;8.06;100.00
62849;BME280;48941;49.516;8.286;2024-03-17T01:55:22;101134.69;;;8.08;100.00
62849;BME280;48941;49.516;8.286;2024-03-17T01:57:50;101131.28;;;8.06;100.00
62849;BME280;48941;49.516;8.286;2024-03-17T02:00:16;101129.47;;;8.06;100.00
62849;BME280;48941;49.516;8.286;2024-03-17T02:02:43;101126.66;;;8.09;100.00
62849;BME280;48941;49.516;8.286;2024-03-17T02:05:09;101128.25;;;8.12;100.00
62849;BME280;48941;49.516;8.286;2024-03-17T02:07:37;101130.75;;;8.15;100.00
62849;BME280;48941;49.516;8.286;2024-03-17T02:10:04;101126.28;;;8.15;100.00
62849;BME280;48941;49.516;8.286;2024-03-17T02:12:31;101114.16;;;8.11;100.00
62849;BME280;48941;49.516;8.286;2024-03-17T02:14:57;101107.13;;;8.10;100.00
62849;BME280;48941;49.516;8.286;2024-03-17T02:17:24;101115.94;;;8.11;100.00
62849;BME280;48941;49.516;8.286;2024-03-17T02:19:51;101114.22;;;8.10;100.00
62849;BME280;48941;49.516;8.286;2024-03-17T02:22:19;101109.28;;;8.04;100.00
62849;BME280;48941;49.516;8.286;2024-03-17T02:24:45;101108.03;;;7.95;100.00
62849;BME280;48941;49.516;8.286;2024-03-17T02:27:12;101108.47;;;7.87;100.00
62849;BME280;48941;49.516;8.286;2024-03-17T02:29:39;101097.56;;;7.92;100.00
62849;BME280;48941;49.516;8.286;2024-03-17T02:32:06;101096.38;;;7.97;100.00
62849;BME280;48941;49.516;8.286;2024-03-17T02:34:33;101099.88;;;7.98;100.00
62849;BME280;48941;49.516;8.286;2024-03-17T02:37:00;101092.09;;;7.95;100.00
62849;BME280;48941;49.516;8.286;2024-03-17T02:39:27;101086.13;;;7.91;100.00
62849;BME280;48941;49.516;8.286;2024-03-17T02:42:05;101090.13;;;7.83;100.00
62849;BME280;48941;49.516;8.286;2024-03-17T02:44:33;101089.38;;;7.81;100.00
62849;BME280;48941;49.516;8.286;2024-03-17T02:47:01;101087.84;;;7.76;100.00
62849;BME280;48941;49.516;8.286;2024-03-17T02:49:30;101090.59;;;7.75;100.00
62849;BME280;48941;49.516;8.286;2024-03-17T02:52:02;101095.22;;;7.71;100.00
62849;BME280;48941;49.516;8.286;2024-03-17T02:54:31;101095.13;;;7.73;100.00
62849;BME280;48941;49.516;8.286;2024-03-17T02:56:58;101096.91;;;7.72;100.00
62849;BME280;48941;49.516;8.286;2024-03-17T02:59:25;101097.47;;;7.63;100.00
62849;BME280;48941;49.516;8.286;2024-03-17T03:01:52;101096.16;;;7.54;100.00
62849;BME280;48941;49.516;8.286;2024-03-17T03:04:20;101098.81;;;7.54;100.00
62849;BME280;48941;49.516;8.286;2024-03-17T03:06:46;101107.03;;;7.50;100.00
62849;BME280;48941;49.516;8.286;2024-03-17T03:09:14;101101.72;;;7.50;100.00
62849;BME280;48941;49.516;8.286;2024-03-17T03:11:47;101099.00;;;7.51;100.00
62849;BME280;48941;49.516;8.286;2024-03-17T03:14:14;101104.53;;;7.47;100.00
62849;BME280;48941;49.516;8.286;2024-03-17T03:16:41;101097.13;;;7.37;100.00
62849;BME280;48941;49.516;8.286;2024-03-17T03:19:08;101096.75;;;7.28;100.00
62849;BME280;48941;49.516;8.286;2024-03-17T03:21:34;101099.69;;;7.23;100.00
62849;BME280;48941;49.516;8.286;2024-03-17T03:24:01;101104.03;;;7.24;100.00
62849;BME280;48941;49.516;8.286;2024-03-17T03:26:28;101103.19;;;7.24;100.00
62849;BME280;48941;49.516;8.286;2024-03-17T03:28:56;101107.97;;;7.17;100.00
62849;BME280;48941;49.516;8.286;2024-03-17T03:31:23;101112.56;;;7.13;100.00
62849;BME280;48941;49.516;8.286;2024-03-17T03:33:50;101106.25;;;7.16;100.00
62849;BME280;48941;49.516;8.286;2024-03-17T03:36:17;101104.53;;;7.15;100.00
62849;BME280;48941;49.516;8.286;2024-03-17T03:38:43;101106.31;;;7.14;100.00
62849;BME280;48941;49.516;8.286;2024-03-17T03:41:11;101104.19;;;7.05;100.00
62849;BME280;48941;49.516;8.286;2024-03-17T03:43:38;101100.75;;;7.03;100.00
62849;BME280;48941;49.516;8.286;2024-03-17T03:46:07;101101.88;;;6.99;100.00
62849;BME280;48941;49.516;8.286;2024-03-17T03:48:34;101102.88;;;6.96;100.00
62849;BME280;48941;49.516;8.286;2024-03-17T03:51:05;101101.59;;;6.88;100.00
62849;BME280;48941;49.516;8.286;2024-03-17T03:53:32;101102.50;;;6.87;100.00
62849;BME280;48941;49.516;8.286;2024-03-17T03:56:02;101100.97;;;6.83;100.00
62849;BME280;48941;49.516;8.286;2024-03-17T03:58:31;101099.97;;;6.85;100.00
62849;BME280;48941;49.516;8.286;2024-03-17T04:00:59;101103.72;;;6.81;100.00
62849;BME280;48941;49.516;8.286;2024-03-17T04:03:28;101111.47;;;6.84;100.00
62849;BME280;48941;49.516;8.286;2024-03-17T04:06:02;101110.69;;;6.82;100.00
62849;BME280;48941;49.516;8.286;2024-03-17T04:08:29;101101.22;;;6.78;100.00
62849;BME280;48941;49.516;8.286;2024-03-17T04:10:56;101105.97;;;6.71;100.00
62849;BME280;48941;49.516;8.286;2024-03-17T04:13:23;101095.47;;;6.70;100.00
62849;BME280;48941;49.516;8.286;2024-03-17T04:15:49;101100.75;;;6.70;100.00
62849;BME280;48941;49.516;8.286;2024-03-17T04:18:22;101104.31;;;6.69;100.00
62849;BME280;48941;49.516;8.286;2024-03-17T04:20:52;101098.44;;;6.64;100.00
62849;BME280;48941;49.516;8.286;2024-03-17T04:23:19;101092.13;;;6.66;100.00
62849;BME280;48941;49.516;8.286;2024-03-17T04:25:47;101095.47;;;6.70;100.00
62849;BME280;48941;49.516;8.286;2024-03-17T04:28:13;101106.66;;;6.75;100.00
62849;BME280;48941;49.516;8.286;2024-03-17T04:30:40;101101.28;;;6.76;100.00
62849;BME280;48941;49.516;8.286;2024-03-17T04:33:08;101107.19;;;6.82;100.00
62849;BME280;48941;49.516;8.286;2024-03-17T04:35:35;101102.94;;;6.79;100.00
62849;BME280;48941;49.516;8.286;2024-03-17T04:38:04;101097.53;;;6.81;100.00
62849;BME280;48941;49.516;8.286;2024-03-17T04:40:31;101099.25;;;6.82;100.00
62849;BME280;48941;49.516;8.286;2024-03-17T04:42:58;101095.91;;;6.78;100.00
62849;BME280;48941;49.516;8.286;2024-03-17T04:45:25;101098.41;;;6.81;100.00
62849;BME280;48941;49.516;8.286;2024-03-17T04:47:52;101094.81;;;6.82;100.00
62849;BME280;48941;49.516;8.286;2024-03-17T04:50:19;101081.50;;;6.84;100.00
62849;BME280;48941;49.516;8.286;2024-03-17T04:52:46;101097.38;;;6.84;100.00
62849;BME280;48941;49.516;8.286;2024-03-17T04:55:16;101082.53;;;6.81;100.00
62849;BME280;48941;49.516;8.286;2024-03-17T04:57:44;101087.97;;;6.78;100.00
62849;BME280;48941;49.516;8.286;2024-03-17T05:00:12;101087.28;;;6.74;100.00
62849;BME280;48941;49.516;8.286;2024-03-17T05:02:39;101086.34;;;6.75;100.00
62849;BME280;48941;49.516;8.286;2024-03-17T05:05:06;101088.75;;;6.80;100.00
62849;BME280;48941;49.516;8.286;2024-03-17T05:07:33;101090.53;;;6.80;100.00
62849;BME280;48941;49.516;8.286;2024-03-17T05:10:00;101091.88;;;6.71;100.00
62849;BME280;48941;49.516;8.286;2024-03-17T05:12:29;101101.09;;;6.64;100.00
62849;BME280;48941;49.516;8.286;2024-03-17T05:14:55;101098.44;;;6.64;100.00
62849;BME280;48941;49.516;8.286;2024-03-17T05:17:22;101100.00;;;6.68;100.00
62849;BME280;48941;49.516;8.286;2024-03-17T05:19:49;101096.50;;;6.67;100.00
62849;BME280;48941;49.516;8.286;2024-03-17T05:22:16;101095.25;;;6.57;100.00
62849;BME280;48941;49.516;8.286;2024-03-17T05:24:43;101097.81;;;6.58;100.00
62849;BME280;48941;49.516;8.286;2024-03-17T05:27:09;101093.63;;;6.54;100.00
62849;BME280;48941;49.516;8.286;2024-03-17T05:29:36;101095.56;;;6.51;100.00
62849;BME280;48941;49.516;8.286;2024-03-17T05:32:04;101103.81;;;6.45;100.00
62849;BME280;48941;49.516;8.286;2024-03-17T05:34:30;101100.56;;;6.40;100.00
62849;BME280;48941;49.516;8.286;2024-03-17T05:36:58;101092.00;;;6.34;100.00
62849;BME280;48941;49.516;8.286;2024-03-17T05:39:24;101100.00;;;6.33;100.00
62849;BME280;48941;49.516;8.286;2024-03-17T05:41:51;101097.53;;;6.30;100.00
62849;BME280;48941;49.516;8.286;2024-03-17T05:44:18;101096.75;;;6.28;100.00
62849;BME280;48941;49.516;8.286;2024-03-17T05:46:47;101101.03;;;6.30;100.00
62849;BME280;48941;49.516;8.286;2024-03-17T05:49:14;101096.81;;;6.26;100.00
62849;BME280;48941;49.516;8.286;2024-03-17T05:51:41;101099.72;;;6.22;100.00
62849;BME280;48941;49.516;8.286;2024-03-17T05:54:07;101097.84;;;6.24;100.00
62849;BME280;48941;49.516;8.286;2024-03-17T05:56:34;101106.50;;;6.27;100.00
62849;BME280;48941;49.516;8.286;2024-03-17T05:59:01;101108.72;;;6.35;100.00
62849;BME280;48941;49.516;8.286;2024-03-17T06:01:28;101107.88;;;6.34;100.00
62849;BME280;48941;49.516;8.286;2024-03-17T06:03:56;101113.22;;;6.33;100.00
62849;BME280;48941;49.516;8.286;2024-03-17T06:06:23;101106.19;;;6.33;100.00
62849;BME280;48941;49.516;8.286;2024-03-17T06:08:50;101096.44;;;6.34;100.00
62849;BME280;48941;49.516;8.286;2024-03-17T06:11:16;101095.97;;;6.26;100.00
62849;BME280;48941;49.516;8.286;2024-03-17T06:13:43;101106.56;;;6.26;100.00
62849;BME280;48941;49.516;8.286;2024-03-17T06:16:10;101104.84;;;6.25;100.00
62849;BME280;48941;49.516;8.286;2024-03-17T06:18:37;101107.66;;;6.22;100.00
62849;BME280;48941;49.516;8.286;2024-03-17T06:21:06;101109.91;;;6.12;100.00
62849;BME280;48941;49.516;8.286;2024-03-17T06:23:34;101105.78;;;6.06;100.00
62849;BME280;48941;49.516;8.286;2024-03-17T06:26:01;101104.06;;;6.05;100.00
62849;BME280;48941;49.516;8.286;2024-03-17T06:28:31;101099.47;;;6.09;100.00
62849;BME280;48941;49.516;8.286;2024-03-17T06:30:58;101103.59;;;6.14;100.00
62849;BME280;48941;49.516;8.286;2024-03-17T06:33:27;101099.53;;;6.25;100.00
62849;BME280;48941;49.516;8.286;2024-03-17T06:35:55;101095.59;;;6.33;100.00
62849;BME280;48941;49.516;8.286;2024-03-17T06:38:23;101098.25;;;6.33;100.00
62849;BME280;48941;49.516;8.286;2024-03-17T06:40:51;101101.28;;;6.43;100.00
62849;BME280;48941;49.516;8.286;2024-03-17T06:43:18;101101.41;;;6.57;100.00
62849;BME280;48941;49.516;8.286;2024-03-17T06:45:54;101106.66;;;6.75;100.00
62849;BME280;48941;49.516;8.286;2024-03-17T06:48:21;101106.63;;;6.92;100.00
62849;BME280;48941;49.516;8.286;2024-03-17T06:50:48;101110.16;;;7.09;100.00
62849;BME280;48941;49.516;8.286;2024-03-17T06:53:15;101106.66;;;7.24;100.00
62849;BME280;48941;49.516;8.286;2024-03-17T06:55:43;101103.19;;;7.40;100.00
62849;BME280;48941;49.516;8.286;2024-03-17T06:58:11;101104.53;;;7.63;100.00
62849;BME280;48941;49.516;8.286;2024-03-17T07:00:38;101099.38;;;7.91;100.00
62849;BME280;48941;49.516;8.286;2024-03-17T07:03:08;101094.88;;;8.08;100.00
62849;BME280;48941;49.516;8.286;2024-03-17T07:05:35;101086.50;;;8.30;100.00
62849;BME280;48941;49.516;8.286;2024-03-17T07:08:02;101088.28;;;8.45;100.00
62849;BME280;48941;49.516;8.286;2024-03-17T07:10:29;101089.44;;;8.70;100.00
62849;BME280;48941;49.516;8.286;2024-03-17T07:12:56;101080.25;;;8.90;100.00
62849;BME280;48941;49.516;8.286;2024-03-17T07:15:23;101086.97;;;9.10;100.00
62849;BME280;48941;49.516;8.286;2024-03-17T07:17:50;101081.53;;;9.26;100.00
62849;BME280;48941;49.516;8.286;2024-03-17T07:20:17;101086.94;;;9.39;100.00
62849;BME280;48941;49.516;8.286;2024-03-17T07:22:43;101085.66;;;9.59;100.00
62849;BME280;48941;49.516;8.286;2024-03-17T07:25:10;101083.78;;;9.73;100.00
62849;BME280;48941;49.516;8.286;2024-03-17T07:27:38;101076.72;;;9.87;100.00
62849;BME280;48941;49.516;8.286;2024-03-17T07:30:08;101074.84;;;10.02;100.00
62849;BME280;48941;49.516;8.286;2024-03-17T07:32:34;101070.59;;;10.12;100.00
62849;BME280;48941;49.516;8.286;2024-03-17T07:35:01;101071.56;;;10.24;100.00
62849;BME280;48941;49.516;8.286;2024-03-17T07:37:29;101073.34;;;10.38;100.00
62849;BME280;48941;49.516;8.286;2024-03-17T07:39:56;101088.25;;;10.40;100.00
62849;BME280;48941;49.516;8.286;2024-03-17T07:42:23;101082.72;;;10.43;100.00
62849;BME280;48941;49.516;8.286;2024-03-17T07:44:50;101088.03;;;10.43;100.00
62849;BME280;48941;49.516;8.286;2024-03-17T07:47:18;101081.56;;;10.47;100.00
62849;BME280;48941;49.516;8.286;2024-03-17T07:49:46;101093.56;;;10.40;100.00
62849;BME280;48941;49.516;8.286;2024-03-17T07:52:13;101092.50;;;10.30;100.00
62849;BME280;48941;49.516;8.286;2024-03-17T07:54:40;101087.47;;;10.25;100.00
62849;BME280;48941;49.516;8.286;2024-03-17T07:57:06;101098.72;;;10.16;100.00
62849;BME280;48941;49.516;8.286;2024-03-17T07:59:34;101095.72;;;10.08;100.00
62849;BME280;48941;49.516;8.286;2024-03-17T08:02:02;101102.94;;;10.06;100.00
62849;BME280;48941;49.516;8.286;2024-03-17T08:04:30;101107.63;;;10.02;100.00
62849;BME280;48941;49.516;8.286;2024-03-17T08:06:56;101100.91;;;9.96;100.00
62849;BME280;48941;49.516;8.286;2024-03-17T08:09:23;101107.94;;;9.97;100.00
62849;BME280;48941;49.516;8.286;2024-03-17T08:11:52;101108.03;;;9.96;100.00
62849;BME280;48941;49.516;8.286;2024-03-17T08:14:19;101093.97;;;9.94;100.00
62849;BME280;48941;49.516;8.286;2024-03-17T08:16:46;101089.97;;;10.01;100.00
62849;BME280;48941;49.516;8.286;2024-03-17T08:19:12;101091.88;;;9.99;100.00
62849;BME280;48941;49.516;8.286;2024-03-17T08:21:40;101089.00;;;10.02;100.00
62849;BME280;48941;49.516;8.286;2024-03-17T08:24:07;101094.03;;;10.07;100.00
62849;BME280;48941;49.516;8.286;2024-03-17T08:26:34;101091.13;;;9.97;100.00
62849;BME280;48941;49.516;8.286;2024-03-17T08:29:01;101088.16;;;10.02;100.00
62849;BME280;48941;49.516;8.286;2024-03-17T08:31:28;101077.72;;;9.99;100.00
62849;BME280;48941;49.516;8.286;2024-03-17T08:33:55;101079.97;;;10.05;100.00
62849;BME280;48941;49.516;8.286;2024-03-17T08:36:21;101083.16;;;10.10;100.00
62849;BME280;48941;49.516;8.286;2024-03-17T08:38:50;101075.72;;;10.15;100.00
62849;BME280;48941;49.516;8.286;2024-03-17T08:41:17;101070.84;;;10.22;97.13
62849;BME280;48941;49.516;8.286;2024-03-17T08:43:43;101073.13;;;10.41;96.56
62849;BME280;48941;49.516;8.286;2024-03-17T08:46:11;101073.97;;;10.41;95.23
62849;BME280;48941;49.516;8.286;2024-03-17T08:48:40;101068.22;;;10.47;99.46
62849;BME280;48941;49.516;8.286;2024-03-17T08:51:08;101067.91;;;10.39;100.00
62849;BME280;48941;49.516;8.286;2024-03-17T08:53:35;101065.66;;;10.46;91.73
62849;BME280;48941;49.516;8.286;2024-03-17T08:56:05;101067.38;;;10.47;91.58
62849;BME280;48941;49.516;8.286;2024-03-17T08:58:33;101074.63;;;10.57;94.48
62849;BME280;48941;49.516;8.286;2024-03-17T09:01:04;101074.84;;;10.67;92.96
62849;BME280;48941;49.516;8.286;2024-03-17T09:03:33;101081.84;;;10.68;88.49
62849;BME280;48941;49.516;8.286;2024-03-17T09:06:00;101074.22;;;10.76;90.56
62849;BME280;48941;49.516;8.286;2024-03-17T09:08:27;101076.31;;;10.84;91.15
62849;BME280;48941;49.516;8.286;2024-03-17T09:10:54;101061.59;;;10.91;90.50
62849;BME280;48941;49.516;8.286;2024-03-17T09:13:24;101066.59;;;10.96;90.13
62849;BME280;48941;49.516;8.286;2024-03-17T09:15:53;101061.69;;;10.90;91.14
62849;BME280;48941;49.516;8.286;2024-03-17T09:18:20;101068.22;;;10.99;92.40
62849;BME280;48941;49.516;8.286;2024-03-17T09:20:56;101061.91;;;11.12;91.36
62849;BME280;48941;49.516;8.286;2024-03-17T09:23:23;101062.75;;;11.13;92.48
62849;BME280;48941;49.516;8.286;2024-03-17T09:25:55;101065.63;;;11.10;92.84
62849;BME280;48941;49.516;8.286;2024-03-17T09:28:24;101063.38;;;11.16;91.69
62849;BME280;48941;49.516;8.286;2024-03-17T09:30:50;101060.28;;;11.23;91.50
62849;BME280;48941;49.516;8.286;2024-03-17T09:33:19;101064.81;;;11.33;92.28
62849;BME280;48941;49.516;8.286;2024-03-17T09:35:53;101068.63;;;11.42;90.98
62849;BME280;48941;49.516;8.286;2024-03-17T09:38:19;101069.88;;;11.49;88.97
62849;BME280;48941;49.516;8.286;2024-03-17T09:40:46;101067.59;;;11.56;90.41
62849;BME280;48941;49.516;8.286;2024-03-17T09:43:15;101065.34;;;11.63;89.63
62849;BME280;48941;49.516;8.286;2024-03-17T09:45:43;101055.47;;;11.76;88.61
62849;BME280;48941;49.516;8.286;2024-03-17T09:48:14;101059.28;;;11.85;90.14
62849;BME280;48941;49.516;8.286;2024-03-17T09:50:49;101064.44;;;11.99;88.15
62849;BME280;48941;49.516;8.286;2024-03-17T09:53:18;101061.69;;;12.01;85.84
62849;BME280;48941;49.516;8.286;2024-03-17T09:55:49;101066.19;;;12.11;87.28
62849;BME280;48941;49.516;8.286;2024-03-17T09:58:16;101066.13;;;12.00;87.19
62849;BME280;48941;49.516;8.286;2024-03-17T10:00:45;101065.09;;;12.03;87.56
62849;BME280;48941;49.516;8.286;2024-03-17T10:03:12;101063.31;;;12.26;88.23
62849;BME280;48941;49.516;8.286;2024-03-17T10:05:39;101067.25;;;12.55;86.12
62849;BME280;48941;49.516;8.286;2024-03-17T10:08:06;101059.41;;;12.77;85.47
62849;BME280;48941;49.516;8.286;2024-03-17T10:10:34;101061.34;;;12.97;83.13
62849;BME280;48941;49.516;8.286;2024-03-17T10:13:03;101057.06;;;13.17;82.18
62849;BME280;48941;49.516;8.286;2024-03-17T10:15:30;101066.78;;;13.41;79.48
62849;BME280;48941;49.516;8.286;2024-03-17T10:17:58;101070.13;;;13.65;78.56
62849;BME280;48941;49.516;8.286;2024-03-17T10:20:26;101063.13;;;13.85;76.92
62849;BME280;48941;49.516;8.286;2024-03-17T10:23:01;101060.81;;;13.92;76.37
62849;BME280;48941;49.516;8.286;2024-03-17T10:25:30;101062.88;;;14.09;76.61
62849;BME280;48941;49.516;8.286;2024-03-17T10:27:57;101066.84;;;14.26;75.25
62849;BME280;48941;49.516;8.286;2024-03-17T10:30:25;101061.53;;;14.36;75.32
62849;BME280;48941;49.516;8.286;2024-03-17T10:32:54;101059.72;;;14.37;73.94
62849;BME280;48941;49.516;8.286;2024-03-17T10:35:30;101060.31;;;14.40;73.64
62849;BME280;48941;49.516;8.286;2024-03-17T10:37:59;101056.38;;;14.44;73.72
62849;BME280;48941;49.516;8.286;2024-03-17T10:40:27;101054.94;;;14.40;72.99
62849;BME280;48941;49.516;8.286;2024-03-17T10:42:55;101054.94;;;14.40;73.07
62849;BME280;48941;49.516;8.286;2024-03-17T10:45:23;101045.78;;;14.43;73.73
62849;BME280;48941;49.516;8.286;2024-03-17T10:47:51;101043.22;;;14.41;74.10
62849;BME280;48941;49.516;8.286;2024-03-17T10:50:20;101043.31;;;14.30;75.05
62849;BME280;48941;49.516;8.286;2024-03-17T10:52:50;101033.09;;;14.24;75.16
62849;BME280;48941;49.516;8.286;2024-03-17T10:55:22;101031.88;;;14.28;75.12
62849;BME280;48941;49.516;8.286;2024-03-17T10:57:51;101033.56;;;14.29;75.36
62849;BME280;48941;49.516;8.286;2024-03-17T11:00:19;101022.97;;;14.27;75.10
62849;BME280;48941;49.516;8.286;2024-03-17T11:02:48;101024.88;;;14.15;75.18
62849;BME280;48941;49.516;8.286;2024-03-17T11:05:21;101019.91;;;14.11;76.75
62849;BME280;48941;49.516;8.286;2024-03-17T11:07:52;101014.44;;;14.12;78.54
62849;BME280;48941;49.516;8.286;2024-03-17T11:10:21;101014.94;;;14.06;77.14
62849;BME280;48941;49.516;8.286;2024-03-17T11:12:50;101012.91;;;13.99;77.14
62849;BME280;48941;49.516;8.286;2024-03-17T11:15:39;101007.44;;;14.00;78.76
62849;BME280;48941;49.516;8.286;2024-03-17T11:18:37;101009.31;;;13.88;79.68
62849;BME280;48941;49.516;8.286;2024-03-17T11:21:07;101000.66;;;13.96;79.77
62849;BME280;48941;49.516;8.286;2024-03-17T11:23:38;100996.38;;;13.72;79.12
62849;BME280;48941;49.516;8.286;2024-03-17T11:26:06;101006.84;;;13.97;78.80
62849;BME280;48941;49.516;8.286;2024-03-17T11:28:50;100991.63;;;13.97;79.42
62849;BME280;48941;49.516;8.286;2024-03-17T11:31:39;100999.41;;;14.00;80.50
62849;BME280;48941;49.516;8.286;2024-03-17T11:34:42;100995.59;;;14.03;80.10
62849;BME280;48941;49.516;8.286;2024-03-17T11:37:42;100996.38;;;13.93;79.99
62849;BME280;48941;49.516;8.286;2024-03-17T11:43:04;100994.84;;;14.12;80.57
62849;BME280;48941;49.516;8.286;2024-03-17T11:45:32;100992.16;;;14.12;80.26
62849;BME280;48941;49.516;8.286;2024-03-17T11:47:59;100990.50;;;14.21;76.75
62849;BME280;48941;49.516;8.286;2024-03-17T11:50:26;100993.31;;;14.19;78.85
62849;BME280;48941;49.516;8.286;2024-03-17T11:52:57;100991.63;;;14.18;76.76
62849;BME280;48941;49.516;8.286;2024-03-17T11:55:25;100989.66;;;14.20;75.30
62849;BME280;48941;49.516;8.286;2024-03-17T11:57:55;100989.66;;;14.20;75.52
62849;BME280;48941;49.516;8.286;2024-03-17T12:00:24;100986.84;;;14.22;75.54
62849;BME280;48941;49.516;8.286;2024-03-17T12:02:50;100992.34;;;14.20;77.13
62849;BME280;48941;49.516;8.286;2024-03-17T12:05:17;100989.19;;;14.15;77.05
62849;BME280;48941;49.516;8.286;2024-03-17T12:07:44;100985.81;;;14.13;78.39
62849;BME280;48941;49.516;8.286;2024-03-17T12:10:11;100988.88;;;14.08;78.73
62849;BME280;48941;49.516;8.286;2024-03-17T12:12:39;100983.13;;;14.13;76.04
62849;BME280;48941;49.516;8.286;2024-03-17T12:15:17;100979.00;;;14.09;78.43
62849;BME280;48941;49.516;8.286;2024-03-17T12:17:44;100977.44;;;14.06;80.14
62849;BME280;48941;49.516;8.286;2024-03-17T12:20:17;100973.53;;;14.10;78.42
62849;BME280;48941;49.516;8.286;2024-03-17T12:22:43;100968.69;;;14.04;77.44
62849;BME280;48941;49.516;8.286;2024-03-17T12:25:16;100971.50;;;14.03;79.79
62849;BME280;48941;49.516;8.286;2024-03-17T12:27:43;100967.91;;;13.92;79.80
62849;BME280;48941;49.516;8.286;2024-03-17T12:30:11;100961.97;;;13.89;82.78
62849;BME280;48941;49.516;8.286;2024-03-17T12:32:37;100956.59;;;13.89;82.13
62849;BME280;48941;49.516;8.286;2024-03-17T12:35:13;100956.50;;;13.90;82.15
62849;BME280;48941;49.516;8.286;2024-03-17T12:37:43;100963.34;;;13.83;81.71
62849;BME280;48941;49.516;8.286;2024-03-17T12:40:18;100955.06;;;13.86;81.64
62849;BME280;48941;49.516;8.286;2024-03-17T12:42:48;100961.13;;;13.88;80.89
62849;BME280;48941;49.516;8.286;2024-03-17T12:45:19;100952.69;;;13.93;78.34
62849;BME280;48941;49.516;8.286;2024-03-17T12:47:47;100939.59;;;13.90;81.58
62849;BME280;48941;49.516;8.286;2024-03-17T12:50:15;100947.16;;;13.85;80.95
62849;BME280;48941;49.516;8.286;2024-03-17T12:52:52;100944.47;;;13.85;80.19
62849;BME280;48941;49.516;8.286;2024-03-17T12:55:19;100947.47;;;13.91;80.10
62849;BME280;48941;49.516;8.286;2024-03-17T12:58:07;100936.63;;;13.93;80.18